Time;durP1;ratioP1;P1;durP2;ratioP2;P2;SDS_P1;SDS_P2;PMS_P1;PMS_P2;Temp;Humidity;BMP_temperature;BMP_pressure;BME280_temperature;BME280_humidity;BME280_pressure;Samples;Min_cycle;Max_cycle;Signal;HPM_P1;HPM_P2
2023/11/30 00:02:09;;;;;;;;;;;;;;;0.50;76.23;98949.22;5118081;28;19959;-79
2023/11/30 00:04:39;;;;;;;;;;;;;;;0.49;76.56;98944.13;5116070;28;19919;-79
2023/11/30 00:07:11;;;;;;;;;;;;;;;0.47;76.90;98938.22;5117833;28;19927;-79
2023/11/30 00:09:41;;;;;;;;;;;;;;;0.44;76.35;98940.66;5118514;28;20388;-82
2023/11/30 00:12:10;;;;;;;;;;;;;;;0.43;76.27;98937.28;5117697;28;19924;-81
2023/11/30 00:14:38;;;;;;;;;;;;;;;0.40;76.56;98932.19;5117881;28;19920;-80
2023/11/30 00:17:07;;;;;;;;;;;;;;;0.40;75.75;98926.31;5119560;27;19981;-80
2023/11/30 00:19:35;;;;;;;;;;;;;;;0.39;76.41;98922.09;5118354;28;20382;-79
2023/11/30 00:22:04;;;;;;;;;;;;;;;0.37;76.33;98926.22;5082196;28;19952;-79
2023/11/30 00:24:33;;;;;;;;;;;;;;;0.35;75.50;98912.78;5118067;28;19927;-79
2023/11/30 00:27:03;;;;;;;;;;;;;;;0.34;75.52;98921.97;5118106;28;19920;-81
2023/11/30 00:29:31;;;;;;;;;;;;;;;0.36;76.37;98912.00;5117824;28;20281;-79
2023/11/30 00:32:00;;;;;;;;;;;;;;;0.36;76.64;98909.50;5116028;28;19980;-80
2023/11/30 00:34:28;;;;;;;;;;;;;;;0.38;75.97;98912.88;5116670;28;19965;-80
2023/11/30 00:36:57;;;;;;;;;;;;;;;0.41;75.88;98905.41;5116383;28;19920;-80
2023/11/30 00:39:25;;;;;;;;;;;;;;;0.41;76.30;98912.94;5098704;28;20010;-79
2023/11/30 00:41:54;;;;;;;;;;;;;;;0.38;76.51;98910.38;5099175;28;19920;-80
2023/11/30 00:44:24;;;;;;;;;;;;;;;0.40;75.96;98916.28;5117680;28;19919;-80
2023/11/30 00:46:53;;;;;;;;;;;;;;;0.39;76.13;98914.56;5116220;28;19920;-79
2023/11/30 00:49:21;;;;;;;;;;;;;;;0.37;76.28;98918.69;5115375;28;19969;-79
2023/11/30 00:51:49;;;;;;;;;;;;;;;0.38;76.49;98917.91;5117916;28;20094;-80
2023/11/30 00:54:18;;;;;;;;;;;;;;;0.41;76.30;98912.94;5116884;28;20001;-79
2023/11/30 00:56:47;;;;;;;;;;;;;;;0.40;76.37;98912.13;5097819;28;20017;-80
2023/11/30 00:59:15;;;;;;;;;;;;;;;0.41;75.95;98912.94;5115651;28;20362;-79
2023/11/30 01:01:46;;;;;;;;;;;;;;;0.39;76.04;98914.56;5116597;28;19919;-79
2023/11/30 01:04:15;;;;;;;;;;;;;;;0.45;76.23;98902.19;5115062;28;19941;-80
2023/11/30 01:06:44;;;;;;;;;;;;;;;0.55;76.08;98901.63;5116425;28;19992;-79
2023/11/30 01:09:12;;;;;;;;;;;;;;;0.60;75.24;98902.59;5117124;28;19927;-81
2023/11/30 01:11:41;;;;;;;;;;;;;;;0.62;74.84;98898.47;5115658;28;19927;-79
2023/11/30 01:14:10;;;;;;;;;;;;;;;0.62;74.88;98903.50;5115343;28;19924;-79
2023/11/30 01:16:39;;;;;;;;;;;;;;;0.63;75.24;98895.13;5114490;28;20466;-73
2023/11/30 01:19:09;;;;;;;;;;;;;;;0.63;73.75;98897.66;5113924;28;19926;-72
2023/11/30 01:21:37;;;;;;;;;;;;;;;0.64;74.42;98901.88;5114558;28;19919;-72
2023/11/30 01:24:06;;;;;;;;;;;;;;;0.65;73.99;98906.06;5113248;28;20006;-72
2023/11/30 01:26:35;;;;;;;;;;;;;;;0.68;73.89;98908.66;5114385;28;20300;-73
2023/11/30 01:29:04;;;;;;;;;;;;;;;0.70;73.16;98912.06;5114888;28;20019;-73
2023/11/30 01:31:33;;;;;;;;;;;;;;;0.67;73.41;98917.03;5063774;28;20349;-73
2023/11/30 01:34:02;;;;;;;;;;;;;;;0.67;73.10;98909.50;5114793;28;20273;-73
2023/11/30 01:36:32;;;;;;;;;;;;;;;0.66;72.45;98917.81;5114320;28;20007;-72
2023/11/30 01:39:01;;;;;;;;;;;;;;;0.61;72.84;98912.69;5115282;28;20387;-73
2023/11/30 01:41:29;;;;;;;;;;;;;;;0.61;72.91;98911.81;5113205;28;19923;-72
2023/11/30 01:43:58;;;;;;;;;;;;;;;0.59;73.00;98909.28;5114206;28;19920;-73
2023/11/30 01:46:27;;;;;;;;;;;;;;;0.58;73.24;98906.72;5112978;28;19920;-72
2023/11/30 01:48:57;;;;;;;;;;;;;;;0.58;73.85;98904.19;5114434;28;19919;-72
2023/11/30 01:51:26;;;;;;;;;;;;;;;0.58;73.30;98909.22;5114392;28;19924;-73
2023/11/30 01:53:57;;;;;;;;;;;;;;;0.58;74.04;98910.09;5112955;28;20018;-73
2023/11/30 01:56:26;;;;;;;;;;;;;;;0.58;73.13;98911.72;5113278;28;20406;-72
2023/11/30 01:58:55;;;;;;;;;;;;;;;0.54;74.02;98912.47;5112817;28;19920;-72
2023/11/30 02:01:25;;;;;;;;;;;;;;;0.54;74.05;98909.97;5112721;28;19920;-72
2023/11/30 02:03:55;;;;;;;;;;;;;;;0.54;73.56;98912.47;5113244;28;19924;-72
2023/11/30 02:06:24;;;;;;;;;;;;;;;0.52;73.73;98916.63;5114230;28;20456;-72
2023/11/30 02:08:52;;;;;;;;;;;;;;;0.52;74.17;98919.13;5113075;28;19920;-72
2023/11/30 02:11:23;;;;;;;;;;;;;;;0.56;74.05;98919.25;5113018;28;19930;-72
2023/11/30 02:13:52;;;;;;;;;;;;;;;0.56;74.24;98918.38;5113029;28;20057;-72
2023/11/30 02:16:21;;;;;;;;;;;;;;;0.54;73.26;98913.34;5116608;28;19931;-72
2023/11/30 02:18:51;;;;;;;;;;;;;;;0.54;73.65;98909.97;5117485;28;19955;-72
2023/11/30 02:21:20;;;;;;;;;;;;;;;0.51;73.13;98905.72;5116771;28;19927;-72
2023/11/30 02:23:50;;;;;;;;;;;;;;;0.53;74.08;98888.19;5099646;28;19919;-72
2023/11/30 02:26:19;;;;;;;;;;;;;;;0.54;74.33;98904.94;5116299;28;19919;-72
2023/11/30 02:28:47;;;;;;;;;;;;;;;0.57;74.11;98890.84;5116552;28;19920;-72
2023/11/30 02:31:16;;;;;;;;;;;;;;;0.59;74.30;98888.34;5117808;28;20369;-72
2023/11/30 02:33:44;;;;;;;;;;;;;;;0.62;74.03;98884.25;5118480;28;19920;-72
2023/11/30 02:36:13;;;;;;;;;;;;;;;0.61;74.06;98886.72;5117251;28;20022;-72
2023/11/30 02:38:42;;;;;;;;;;;;;;;0.62;74.23;98875.88;5116327;28;20019;-72
2023/11/30 02:41:12;;;;;;;;;;;;;;;0.61;73.63;98876.69;5099316;28;20297;-72
2023/11/30 02:43:40;;;;;;;;;;;;;;;0.60;73.75;98882.53;5116489;28;19942;-72
2023/11/30 02:46:09;;;;;;;;;;;;;;;0.60;74.12;98883.34;5117446;28;19999;-72
2023/11/30 02:48:38;;;;;;;;;;;;;;;0.66;73.74;98890.19;5117112;28;20377;-72
2023/11/30 02:51:07;;;;;;;;;;;;;;;0.74;73.52;98888.75;5117084;28;19920;-73
2023/11/30 02:53:36;;;;;;;;;;;;;;;0.78;72.79;98887.13;5099229;28;20365;-72
2023/11/30 02:56:05;;;;;;;;;;;;;;;0.78;73.11;98890.50;5081949;28;19947;-72
2023/11/30 02:58:35;;;;;;;;;;;;;;;0.78;72.54;98902.22;5117358;28;20018;-73
2023/11/30 03:01:04;;;;;;;;;;;;;;;0.75;72.58;98902.97;5117668;28;19920;-79
2023/11/30 03:03:33;;;;;;;;;;;;;;;0.71;72.44;98903.72;5100610;28;20327;-78
2023/11/30 03:06:01;;;;;;;;;;;;;;;0.74;72.46;98896.28;5118918;27;20323;-78
2023/11/30 03:08:30;;;;;;;;;;;;;;;0.73;72.85;98896.22;5116544;28;20289;-78
2023/11/30 03:11:00;;;;;;;;;;;;;;;0.75;72.82;98894.59;5118177;27;19965;-79
2023/11/30 03:13:29;;;;;;;;;;;;;;;0.77;72.23;98886.28;5117190;28;19948;-79
2023/11/30 03:15:59;;;;;;;;;;;;;;;0.80;72.63;98890.53;5098636;28;19926;-78
2023/11/30 03:18:27;;;;;;;;;;;;;;;0.79;72.52;98891.38;5117438;28;20006;-78
2023/11/30 03:20:56;;;;;;;;;;;;;;;0.82;71.39;98884.75;5119414;28;20018;-73
2023/11/30 03:23:25;;;;;;;;;;;;;;;0.82;72.14;98879.72;5117340;28;19919;-78
2023/11/30 03:25:54;;;;;;;;;;;;;;;0.85;71.23;98877.28;5099506;28;20430;-78
2023/11/30 03:28:23;;;;;;;;;;;;;;;0.84;71.70;98875.56;5115721;28;20012;-78
2023/11/30 03:30:51;;;;;;;;;;;;;;;0.87;70.99;98859.72;5100634;28;20374;-77
2023/11/30 03:33:22;;;;;;;;;;;;;;;0.95;70.38;98864.16;5116516;28;19927;-74
2023/11/30 03:35:51;;;;;;;;;;;;;;;0.97;70.35;98861.66;5116157;28;20380;-75
2023/11/30 03:38:20;;;;;;;;;;;;;;;0.97;69.96;98851.63;5117132;28;19927;-73
2023/11/30 03:40:49;;;;;;;;;;;;;;;1.03;70.60;98852.59;5116124;28;20040;-76
2023/11/30 03:43:17;;;;;;;;;;;;;;;1.07;69.48;98839.31;5117122;28;19919;-77
2023/11/30 03:45:46;;;;;;;;;;;;;;;1.12;69.28;98842.78;5116185;28;19927;-77
2023/11/30 03:48:15;;;;;;;;;;;;;;;1.18;69.58;98837.88;5119803;28;19920;-80
2023/11/30 03:50:45;;;;;;;;;;;;;;;1.23;68.84;98826.28;5118914;28;20396;-79
2023/11/30 03:53:14;;;;;;;;;;;;;;;1.27;69.05;98822.19;5118847;28;19972;-79
2023/11/30 03:55:43;;;;;;;;;;;;;;;1.28;69.37;98818.84;5116423;28;19955;-78
2023/11/30 03:58:12;;;;;;;;;;;;;;;1.29;69.24;98821.41;5117853;28;19923;-79
2023/11/30 04:00:41;;;;;;;;;;;;;;;1.31;69.10;98814.75;5116593;28;20006;-78
2023/11/30 04:03:09;;;;;;;;;;;;;;;1.30;69.36;98818.06;5116658;28;19927;-78
2023/11/30 04:05:38;;;;;;;;;;;;;;;1.24;69.75;98812.91;5116988;28;19923;-79
2023/11/30 04:08:08;;;;;;;;;;;;;;;1.21;70.66;98807.81;5115964;28;19919;-78
2023/11/30 04:10:37;;;;;;;;;;;;;;;1.23;70.44;98805.31;5098877;28;19919;-78
2023/11/30 04:13:06;;;;;;;;;;;;;;;1.23;71.14;98808.69;5116521;28;19942;-73
2023/11/30 04:15:34;;;;;;;;;;;;;;;1.19;71.39;98809.44;5115012;28;19920;-78
2023/11/30 04:18:03;;;;;;;;;;;;;;;1.17;71.23;98801.03;5116259;28;19919;-78
2023/11/30 04:20:32;;;;;;;;;;;;;;;1.11;72.01;98810.94;5116075;28;19964;-78
2023/11/30 04:23:00;;;;;;;;;;;;;;;1.07;72.33;98804.16;5115593;27;19920;-73
2023/11/30 04:25:30;;;;;;;;;;;;;;;1.05;72.80;98794.88;5115176;28;19924;-73
2023/11/30 04:27:59;;;;;;;;;;;;;;;0.98;72.57;98801.44;5115250;28;20002;-73
2023/11/30 04:30:28;;;;;;;;;;;;;;;0.95;73.11;98792.97;5114327;28;20030;-73
2023/11/30 04:32:56;;;;;;;;;;;;;;;0.88;73.28;98796.16;5114277;28;20006;-73
2023/11/30 04:35:26;;;;;;;;;;;;;;;0.86;73.71;98797.78;5113998;28;19926;-77
2023/11/30 04:37:55;;;;;;;;;;;;;;;0.86;74.06;98801.16;5115493;28;19926;-76
2023/11/30 04:40:24;;;;;;;;;;;;;;;0.86;74.14;98791.13;5115342;28;19962;-76
2023/11/30 04:42:54;;;;;;;;;;;;;;;0.84;74.36;98795.22;5115165;28;20277;-76
2023/11/30 04:45:22;;;;;;;;;;;;;;;0.80;74.55;98787.59;5113996;28;20377;-77
2023/11/30 04:47:51;;;;;;;;;;;;;;;0.79;75.10;98791.78;5113615;28;19927;-73
2023/11/30 04:50:20;;;;;;;;;;;;;;;0.75;74.86;98790.00;5113623;28;19920;-72
2023/11/30 04:52:49;;;;;;;;;;;;;;;0.75;75.08;98795.03;5115144;28;20339;-72
2023/11/30 04:55:17;;;;;;;;;;;;;;;0.72;75.24;98789.09;5113365;28;19926;-76
2023/11/30 04:57:46;;;;;;;;;;;;;;;0.64;76.13;98792.28;5114791;28;19962;-75
2023/11/30 05:00:17;;;;;;;;;;;;;;;0.68;75.93;98788.16;5114655;28;20388;-78
2023/11/30 05:02:51;;;;;;;;;;;;;;;0.70;76.15;98793.22;5115020;28;19981;-78
2023/11/30 05:05:19;;;;;;;;;;;;;;;0.71;76.20;98788.25;5114599;28;19920;-76
2023/11/30 05:07:49;;;;;;;;;;;;;;;0.73;75.89;98791.63;5114903;28;19926;-73
2023/11/30 05:10:17;;;;;;;;;;;;;;;0.70;75.72;98780.69;5114810;28;19978;-72
2023/11/30 05:12:46;;;;;;;;;;;;;;;0.70;76.22;98776.47;5114503;28;19926;-72
2023/11/30 05:15:16;;;;;;;;;;;;;;;0.69;76.57;98774.81;5114395;28;19924;-72
2023/11/30 05:17:44;;;;;;;;;;;;;;;0.68;76.31;98778.13;5114576;28;19923;-75
2023/11/30 05:20:13;;;;;;;;;;;;;;;0.61;76.80;98771.25;5113564;28;20385;-72
2023/11/30 05:22:42;;;;;;;;;;;;;;;0.56;76.33;98767.78;5113518;28;19973;-72
2023/11/30 05:25:10;;;;;;;;;;;;;;;0.54;77.14;98764.41;5114665;28;19920;-72
2023/11/30 05:27:39;;;;;;;;;;;;;;;0.48;76.86;98759.25;5114633;28;19924;-72
2023/11/30 05:30:08;;;;;;;;;;;;;;;0.49;77.22;98756.75;5114377;28;19920;-78
2023/11/30 05:32:38;;;;;;;;;;;;;;;0.46;77.05;98745.78;5114614;28;19988;-77
2023/11/30 05:35:07;;;;;;;;;;;;;;;0.41;76.89;98737.28;5114958;28;20030;-77
2023/11/30 05:37:36;;;;;;;;;;;;;;;0.42;77.34;98734.00;5114279;28;19919;-77
2023/11/30 05:40:05;;;;;;;;;;;;;;;0.41;77.78;98724.75;5114193;28;20437;-75
2023/11/30 05:42:34;;;;;;;;;;;;;;;0.39;77.94;98731.41;5114502;28;19919;-72
2023/11/30 05:45:03;;;;;;;;;;;;;;;0.38;77.52;98738.09;5114508;28;19920;-72
2023/11/30 05:47:31;;;;;;;;;;;;;;;0.35;77.65;98749.72;5114499;28;19920;-72
2023/11/30 05:50:01;;;;;;;;;;;;;;;0.37;78.20;98748.06;5096497;28;19920;-74
2023/11/30 05:52:30;;;;;;;;;;;;;;;0.34;77.69;98756.38;5118652;28;19974;-74
2023/11/30 05:54:58;;;;;;;;;;;;;;;0.36;78.19;98753.94;5118531;28;19972;-74
2023/11/30 05:57:27;;;;;;;;;;;;;;;0.42;78.59;98764.09;5118029;28;19924;-73
2023/11/30 05:59:55;;;;;;;;;;;;;;;0.47;78.60;98763.41;5118363;28;19920;-73
2023/11/30 06:02:26;;;;;;;;;;;;;;;0.51;78.00;98767.69;5117500;28;19919;-77
2023/11/30 06:04:56;;;;;;;;;;;;;;;0.58;78.49;98773.69;5118105;28;20006;-77
2023/11/30 06:07:26;;;;;;;;;;;;;;;0.59;77.98;98760.34;5117034;28;19968;-78
2023/11/30 06:09:54;;;;;;;;;;;;;;;0.54;78.10;98759.38;5118434;28;20357;-78
2023/11/30 06:12:23;;;;;;;;;;;;;;;0.55;78.71;98761.09;5117997;28;20347;-77
2023/11/30 06:14:52;;;;;;;;;;;;;;;0.63;78.71;98759.59;5118198;28;20014;-77
2023/11/30 06:17:20;;;;;;;;;;;;;;;0.59;78.59;98760.34;5117715;28;20285;-78
2023/11/30 06:19:49;;;;;;;;;;;;;;;0.61;78.28;98766.22;5116918;28;20021;-72
2023/11/30 06:22:18;;;;;;;;;;;;;;;0.64;78.51;98766.31;5117969;28;19927;-77
2023/11/30 06:24:48;;;;;;;;;;;;;;;0.59;78.70;98762.84;5116753;28;19920;-77
2023/11/30 06:27:16;;;;;;;;;;;;;;;0.63;78.36;98767.13;5117511;28;19920;-78
2023/11/30 06:29:44;;;;;;;;;;;;;;;0.70;78.02;98776.47;5116321;28;20331;-78
2023/11/30 06:32:13;;;;;;;;;;;;;;;0.71;77.62;98772.31;5116619;28;19966;-77
2023/11/30 06:34:42;;;;;;;;;;;;;;;0.68;77.83;98763.06;5116228;28;19919;-77
2023/11/30 06:37:10;;;;;;;;;;;;;;;0.73;77.83;98755.63;5117909;28;19919;-78
2023/11/30 06:39:42;;;;;;;;;;;;;;;0.73;77.63;98769.03;5116622;28;19926;-77
2023/11/30 06:42:12;;;;;;;;;;;;;;;0.78;77.56;98764.13;5117679;28;19965;-77
2023/11/30 06:44:43;;;;;;;;;;;;;;;0.81;77.42;98755.00;5117549;28;19945;-77
2023/11/30 06:47:12;;;;;;;;;;;;;;;0.79;77.27;98755.78;5115811;28;19920;-77
2023/11/30 06:49:40;;;;;;;;;;;;;;;0.80;77.08;98760.81;5117526;28;20007;-77
2023/11/30 06:52:09;;;;;;;;;;;;;;;0.83;77.48;98755.88;5095910;28;19927;-77
2023/11/30 06:54:38;;;;;;;;;;;;;;;0.87;77.19;98745.06;5110429;28;19973;-77
2023/11/30 06:57:06;;;;;;;;;;;;;;;0.88;77.31;98751.81;5115746;28;20355;-75
2023/11/30 06:59:36;;;;;;;;;;;;;;;0.86;76.78;98753.44;5116797;28;19931;-72
2023/11/30 07:02:05;;;;;;;;;;;;;;;0.83;77.15;98750.84;5116262;28;19928;-74
2023/11/30 07:04:35;;;;;;;;;;;;;;;0.83;76.46;98748.34;5115568;28;19926;-78
2023/11/30 07:07:04;;;;;;;;;;;;;;;0.89;76.76;98737.59;5117153;28;19964;-77
2023/11/30 07:09:32;;;;;;;;;;;;;;;0.97;76.27;98744.47;5105489;28;19924;-77
2023/11/30 07:12:02;;;;;;;;;;;;;;;0.96;77.03;98745.28;5116293;28;20369;-77
2023/11/30 07:14:30;;;;;;;;;;;;;;;0.97;76.77;98741.97;5112584;28;19919;-75
2023/11/30 07:17:23;;;;;;;;;;;;;;;0.99;76.21;98742.84;5100788;28;19964;-74
2023/11/30 07:19:52;;;;;;;;;;;;;;;1.05;76.62;98737.97;5116903;28;19934;-76
2023/11/30 07:22:24;;;;;;;;;;;;;;;1.11;76.58;98739.72;5116788;28;20289;-75
2023/11/30 07:24:53;;;;;;;;;;;;;;;1.18;76.74;98734.88;5095268;27;20378;-73
2023/11/30 07:27:22;;;;;;;;;;;;;;;1.18;76.65;98742.41;5096337;28;19924;-74
2023/11/30 07:29:50;;;;;;;;;;;;;;;1.17;76.13;98729.81;5096317;28;19920;-73
2023/11/30 07:32:20;;;;;;;;;;;;;;;1.18;75.65;98737.38;5093873;28;19920;-72
2023/11/30 07:34:49;;;;;;;;;;;;;;;1.20;76.38;98735.75;5116075;28;19951;-74
2023/11/30 07:37:17;;;;;;;;;;;;;;;1.19;75.72;98729.03;5116176;28;19919;-72
2023/11/30 07:39:46;;;;;;;;;;;;;;;1.18;76.04;98724.81;5114463;28;19923;-72
2023/11/30 07:42:16;;;;;;;;;;;;;;;1.25;76.35;98731.66;5115213;28;19926;-72
2023/11/30 07:45:01;;;;;;;;;;;;;;;1.28;76.58;98721.69;5075632;28;20002;-72
2023/11/30 07:47:34;;;;;;;;;;;;;;;1.29;75.80;98715.84;5074746;28;19924;-75
2023/11/30 07:50:03;;;;;;;;;;;;;;;1.28;75.96;98724.19;5093825;28;20366;-76
2023/11/30 07:52:35;;;;;;;;;;;;;;;1.31;76.07;98729.28;5094364;28;19919;-73
2023/11/30 07:55:03;;;;;;;;;;;;;;;1.32;76.15;98730.97;5103238;28;20238;-72
2023/11/30 07:57:33;;;;;;;;;;;;;;;1.35;75.99;98718.47;5103544;28;19920;-74
2023/11/30 08:00:05;;;;;;;;;;;;;;;1.38;76.42;98716.84;5113505;28;19920;-74
2023/11/30 08:02:35;;;;;;;;;;;;;;;1.43;76.32;98712.75;5112184;28;19965;-75
2023/11/30 08:05:05;;;;;;;;;;;;;;;1.46;77.26;98715.34;5095264;28;19920;-74
2023/11/30 08:07:33;;;;;;;;;;;;;;;1.48;76.53;98714.53;5093435;28;19919;-72
2023/11/30 08:10:04;;;;;;;;;;;;;;;1.51;77.30;98706.22;5095005;28;20006;-76
2023/11/30 08:12:33;;;;;;;;;;;;;;;1.52;77.28;98707.91;5111101;28;19920;-72
2023/11/30 08:15:02;;;;;;;;;;;;;;;1.57;77.18;98701.28;5094843;28;20369;-72
2023/11/30 08:17:30;;;;;;;;;;;;;;;1.60;76.90;98696.31;5095201;28;19960;-74
2023/11/30 08:20:01;;;;;;;;;;;;;;;1.62;76.58;98702.22;5096424;28;19928;-77
2023/11/30 08:22:30;;;;;;;;;;;;;;;1.62;76.66;98699.72;5107938;28;20355;-74
2023/11/30 08:25:00;;;;;;;;;;;;;;;1.60;76.40;98701.34;5083734;28;19920;-72
2023/11/30 08:27:29;;;;;;;;;;;;;;;1.62;76.50;98700.56;5109412;28;19920;-75
2023/11/30 08:29:58;;;;;;;;;;;;;;;1.67;76.86;98703.16;5114010;28;20325;-72
2023/11/30 08:32:28;;;;;;;;;;;;;;;1.71;76.81;98709.94;5115824;28;19965;-72
2023/11/30 08:34:56;;;;;;;;;;;;;;;1.71;76.52;98709.94;5113874;28;19920;-75
2023/11/30 08:37:27;;;;;;;;;;;;;;;1.73;76.14;98704.13;5112808;28;19924;-76
2023/11/30 08:39:55;;;;;;;;;;;;;;;1.74;76.64;98697.41;5115114;28;19919;-72
2023/11/30 08:42:24;;;;;;;;;;;;;;;1.78;76.05;98691.63;5113973;28;19919;-74
2023/11/30 08:44:53;;;;;;;;;;;;;;;1.80;76.27;98695.03;5113623;28;19943;-72
2023/11/30 08:47:21;;;;;;;;;;;;;;;1.78;75.75;98694.13;5105483;28;20014;-77
2023/11/30 08:49:50;;;;;;;;;;;;;;;1.80;75.67;98693.34;5110194;27;20354;-77
2023/11/30 08:52:20;;;;;;;;;;;;;;;1.88;74.98;98693.47;5092251;28;20037;-76
2023/11/30 08:54:51;;;;;;;;;;;;;;;1.94;74.78;98693.59;5101348;28;20366;-77
2023/11/30 08:57:20;;;;;;;;;;;;;;;1.98;74.73;98695.34;5114713;28;19919;-77
2023/11/30 08:59:49;;;;;;;;;;;;;;;1.97;75.15;98688.59;5115012;28;19919;-77
2023/11/30 09:02:20;;;;;;;;;;;;;;;1.99;74.62;98697.03;5114640;28;19919;-73
2023/11/30 09:04:49;;;;;;;;;;;;;;;2.04;74.10;98701.31;5114890;28;19920;-73
2023/11/30 09:07:18;;;;;;;;;;;;;;;2.06;74.05;98701.38;5114929;28;19923;-77
2023/11/30 09:09:46;;;;;;;;;;;;;;;2.10;74.01;98710.66;5113703;28;19919;-78
2023/11/30 09:12:20;;;;;;;;;;;;;;;2.11;74.26;98707.31;5113917;28;20017;-76
2023/11/30 09:14:49;;;;;;;;;;;;;;;2.12;74.71;98714.03;5063909;28;20006;-77
2023/11/30 09:17:18;;;;;;;;;;;;;;;2.17;73.87;98707.41;5115203;28;19924;-77
2023/11/30 09:19:47;;;;;;;;;;;;;;;2.26;74.27;98707.56;5113221;28;19920;-73
2023/11/30 09:22:15;;;;;;;;;;;;;;;2.30;73.82;98713.50;5114321;28;20328;-75
2023/11/30 09:24:44;;;;;;;;;;;;;;;2.37;73.91;98708.59;5113839;28;19920;-76
2023/11/30 09:27:12;;;;;;;;;;;;;;;2.39;73.72;98701.03;5115097;28;19920;-78
2023/11/30 09:29:42;;;;;;;;;;;;;;;2.41;74.01;98702.78;5115221;28;20018;-78
2023/11/30 09:32:11;;;;;;;;;;;;;;;2.43;73.93;98700.25;5113754;28;19945;-74
2023/11/30 09:34:40;;;;;;;;;;;;;;;2.46;73.80;98696.13;5114200;28;19926;-74
2023/11/30 09:37:08;;;;;;;;;;;;;;;2.49;72.89;98681.09;5113463;28;20358;-74
2023/11/30 09:39:38;;;;;;;;;;;;;;;2.49;72.91;98681.09;5114232;28;19919;-74
2023/11/30 09:42:08;;;;;;;;;;;;;;;2.46;72.74;98676.00;5112823;28;19919;-74
2023/11/30 09:44:38;;;;;;;;;;;;;;;2.49;72.61;98671.00;5114121;28;19926;-78
2023/11/30 09:47:08;;;;;;;;;;;;;;;2.51;72.79;98664.31;5113627;28;19969;-74
2023/11/30 09:49:36;;;;;;;;;;;;;;;2.49;72.44;98653.38;5115670;28;20380;-77
2023/11/30 09:52:06;;;;;;;;;;;;;;;2.53;72.97;98647.56;5116419;28;19942;-77
2023/11/30 09:54:35;;;;;;;;;;;;;;;2.55;72.07;98640.88;5115842;28;20326;-78
2023/11/30 09:57:04;;;;;;;;;;;;;;;2.58;72.32;98630.84;5115944;28;19920;-78
2023/11/30 09:59:33;;;;;;;;;;;;;;;2.62;72.65;98630.06;5116722;28;19943;-78
2023/11/30 10:02:02;;;;;;;;;;;;;;;2.67;72.19;98615.84;5115238;28;19927;-78
2023/11/30 10:04:36;;;;;;;;;;;;;;;2.65;71.72;98607.44;5114137;28;20258;-74
2023/11/30 10:07:06;;;;;;;;;;;;;;;2.62;70.36;98594.78;5096466;28;19946;-76
2023/11/30 10:09:35;;;;;;;;;;;;;;;2.63;68.97;98586.44;5116018;28;19920;-79
2023/11/30 10:12:05;;;;;;;;;;;;;;;2.63;68.49;98581.41;5110302;28;19919;-77
2023/11/30 10:14:33;;;;;;;;;;;;;;;2.67;68.37;98570.53;5118626;28;20369;-77
2023/11/30 10:17:02;;;;;;;;;;;;;;;2.70;68.41;98565.53;5098134;28;20358;-76
2023/11/30 10:19:31;;;;;;;;;;;;;;;2.72;68.21;98558.84;5097813;28;20319;-77
2023/11/30 10:22:03;;;;;;;;;;;;;;;2.75;68.09;98557.16;5105195;28;19958;-76
2023/11/30 10:24:31;;;;;;;;;;;;;;;2.78;67.42;98562.25;5115350;28;20361;-77
2023/11/30 10:27:04;;;;;;;;;;;;;;;2.79;67.56;98563.94;5118530;28;20397;-75
2023/11/30 10:29:33;;;;;;;;;;;;;;;2.78;66.68;98563.09;5114500;28;19920;-76
2023/11/30 10:32:05;;;;;;;;;;;;;;;2.78;66.85;98557.22;5091448;28;20388;-75
2023/11/30 10:34:37;;;;;;;;;;;;;;;2.84;66.45;98552.25;5097324;28;19920;-78
2023/11/30 10:37:08;;;;;;;;;;;;;;;2.84;66.92;98545.53;5106114;28;19920;-79
2023/11/30 10:39:38;;;;;;;;;;;;;;;2.86;66.48;98537.97;5102071;28;19965;-79
2023/11/30 10:42:09;;;;;;;;;;;;;;;2.91;67.14;98544.75;5114058;28;19920;-75
2023/11/30 10:44:39;;;;;;;;;;;;;;;2.95;66.62;98541.44;5117738;28;19919;-74
2023/11/30 10:47:10;;;;;;;;;;;;;;;2.96;66.51;98533.06;5116004;28;19949;-75
2023/11/30 10:49:39;;;;;;;;;;;;;;;3.00;66.50;98528.91;5111067;27;20374;-75
2023/11/30 10:52:09;;;;;;;;;;;;;;;3.03;66.62;98533.97;5096919;28;19927;-74
2023/11/30 10:54:39;;;;;;;;;;;;;;;3.03;66.26;98539.00;5096856;28;19970;-74
2023/11/30 10:57:08;;;;;;;;;;;;;;;3.08;66.40;98538.25;5096905;28;20267;-75
2023/11/30 10:59:37;;;;;;;;;;;;;;;3.12;66.53;98539.13;5099913;28;19970;-74
2023/11/30 11:02:08;;;;;;;;;;;;;;;3.14;66.44;98534.94;5120674;28;19942;-79
2023/11/30 11:04:39;;;;;;;;;;;;;;;3.16;66.57;98530.75;5118585;28;19965;-77
2023/11/30 11:07:10;;;;;;;;;;;;;;;3.16;66.35;98540.84;5115833;28;19926;-77
2023/11/30 11:09:42;;;;;;;;;;;;;;;3.17;66.08;98547.56;5096892;28;20023;-75
2023/11/30 11:12:18;;;;;;;;;;;;;;;3.21;66.18;98541.72;5093517;28;20386;-74
2023/11/30 11:14:50;;;;;;;;;;;;;;;3.24;66.46;98541.75;5078311;28;20014;-73
2023/11/30 11:17:21;;;;;;;;;;;;;;;3.23;66.56;98524.94;5111683;28;19919;-73
2023/11/30 11:19:50;;;;;;;;;;;;;;;3.24;66.52;98514.00;5115600;28;19924;-73
2023/11/30 11:22:21;;;;;;;;;;;;;;;3.28;66.89;98513.22;5115207;28;19919;-73
2023/11/30 11:24:49;;;;;;;;;;;;;;;3.31;67.16;98505.72;5116576;28;20011;-73
2023/11/30 11:27:29;;;;;;;;;;;;;;;3.27;66.57;98509.00;5095626;28;19945;-73
2023/11/30 11:29:58;;;;;;;;;;;;;;;3.28;66.78;98510.72;5096699;28;19920;-74
2023/11/30 11:32:28;;;;;;;;;;;;;;;3.27;66.85;98506.50;5116596;28;19920;-73
2023/11/30 11:34:57;;;;;;;;;;;;;;;3.23;66.68;98503.09;5115337;28;19920;-73
2023/11/30 11:37:27;;;;;;;;;;;;;;;3.18;67.19;98503.88;5113067;28;19923;-76
2023/11/30 11:39:56;;;;;;;;;;;;;;;3.15;67.69;98488.72;5109996;28;19924;-76
2023/11/30 11:42:25;;;;;;;;;;;;;;;3.15;67.85;98489.56;5086682;28;19972;-78
2023/11/30 11:44:54;;;;;;;;;;;;;;;3.13;67.89;98492.91;5110559;28;20370;-77
2023/11/30 11:47:23;;;;;;;;;;;;;;;3.11;68.09;98492.06;5105346;28;19972;-78
2023/11/30 11:49:51;;;;;;;;;;;;;;;3.09;67.63;98488.69;5116122;28;20030;-79
2023/11/30 11:52:20;;;;;;;;;;;;;;;3.09;68.17;98479.47;5117866;28;19927;-76
2023/11/30 11:55:00;;;;;;;;;;;;;;;3.15;67.86;98478.66;5115908;28;20001;-78
2023/11/30 11:57:33;;;;;;;;;;;;;;;3.21;67.97;98477.06;5105597;28;19920;-78
2023/11/30 12:00:02;;;;;;;;;;;;;;;3.26;68.01;98472.03;5118725;28;19926;-79
2023/11/30 12:02:33;;;;;;;;;;;;;;;3.28;68.52;98460.28;5115609;28;20308;-79
2023/11/30 12:05:09;;;;;;;;;;;;;;;3.25;68.71;98460.25;5119755;28;19923;-76
2023/11/30 12:07:48;;;;;;;;;;;;;;;3.25;68.55;98460.25;5117656;28;20389;-78
2023/11/30 12:10:28;;;;;;;;;;;;;;;3.25;68.53;98460.25;5114993;28;19919;-74
2023/11/30 12:12:59;;;;;;;;;;;;;;;3.28;68.40;98450.22;5100222;28;19954;-74
2023/11/30 12:15:29;;;;;;;;;;;;;;;3.31;68.22;98457.81;5095567;28;19973;-77
2023/11/30 12:17:58;;;;;;;;;;;;;;;3.30;68.20;98458.63;5097452;28;19927;-78
2023/11/30 12:20:27;;;;;;;;;;;;;;;3.29;67.99;98446.84;5096170;28;19927;-78
2023/11/30 12:22:55;;;;;;;;;;;;;;;3.26;68.26;98444.31;5096583;28;19920;-78
2023/11/30 12:25:26;;;;;;;;;;;;;;;3.25;68.30;98446.00;5107376;28;19926;-78
2023/11/30 12:27:54;;;;;;;;;;;;;;;3.23;68.36;98435.06;5118177;28;19919;-77
2023/11/30 12:30:23;;;;;;;;;;;;;;;3.22;68.63;98423.25;5114872;28;19929;-78
2023/11/30 12:32:52;;;;;;;;;;;;;;;3.18;69.15;98418.19;5116799;28;19923;-79
2023/11/30 12:35:21;;;;;;;;;;;;;;;3.16;69.00;98422.38;5096723;28;19926;-78
2023/11/30 12:37:50;;;;;;;;;;;;;;;3.13;68.55;98425.72;5097264;28;20010;-76
2023/11/30 12:40:18;;;;;;;;;;;;;;;3.09;69.06;98429.06;5114800;28;20380;-78
2023/11/30 12:42:47;;;;;;;;;;;;;;;3.06;69.13;98434.06;5114899;28;19919;-74
2023/11/30 12:45:16;;;;;;;;;;;;;;;3.08;69.36;98416.41;5099276;28;19973;-74
2023/11/30 12:47:49;;;;;;;;;;;;;;;3.06;68.75;98418.09;5094151;28;19919;-73
2023/11/30 12:50:19;;;;;;;;;;;;;;;3.03;69.59;98426.47;5077266;28;19935;-77
2023/11/30 12:52:48;;;;;;;;;;;;;;;3.02;69.21;98427.31;5110526;28;19926;-73
2023/11/30 12:55:17;;;;;;;;;;;;;;;3.05;69.54;98434.03;5092701;28;19920;-78
2023/11/30 12:57:48;;;;;;;;;;;;;;;3.03;69.44;98430.66;5094470;28;19958;-78
2023/11/30 13:00:18;;;;;;;;;;;;;;;3.06;69.68;98430.69;5092076;28;19920;-77
2023/11/30 13:02:49;;;;;;;;;;;;;;;3.11;69.98;98421.50;5094277;28;19962;-75
2023/11/30 13:05:20;;;;;;;;;;;;;;;3.10;69.51;98414.75;5096975;28;19923;-77
2023/11/30 13:07:48;;;;;;;;;;;;;;;3.05;70.07;98421.44;5114499;28;20403;-77
2023/11/30 13:10:20;;;;;;;;;;;;;;;3.03;69.64;98413.00;5113458;28;19920;-78